sensor_id;sensor_type;location;lat;lon;timestamp;temperature;humidity
51815;DHT22;37874;53.158;6.766;2024-03-17T00:02:19;18.70;72.30
51815;DHT22;37874;53.158;6.766;2024-03-17T00:04:45;17.80;71.80
51815;DHT22;37874;53.158;6.766;2024-03-17T00:07:19;18.60;72.20
51815;DHT22;37874;53.158;6.766;2024-03-17T00:09:52;18.60;72.20
51815;DHT22;37874;53.158;6.766;2024-03-17T00:12:26;18.40;72.20
51815;DHT22;37874;53.158;6.766;2024-03-17T00:14:51;17.60;71.70
51815;DHT22;37874;53.158;6.766;2024-03-17T00:17:23;17.70;71.80
51815;DHT22;37874;53.158;6.766;2024-03-17T00:19:50;17.90;72.00
51815;DHT22;37874;53.158;6.766;2024-03-17T00:22:16;17.70;71.80
51815;DHT22;37874;53.158;6.766;2024-03-17T00:24:51;17.60;71.80
51815;DHT22;37874;53.158;6.766;2024-03-17T00:27:27;17.60;71.80
51815;DHT22;37874;53.158;6.766;2024-03-17T00:29:56;17.50;71.80
51815;DHT22;37874;53.158;6.766;2024-03-17T00:32:28;17.70;71.90
51815;DHT22;37874;53.158;6.766;2024-03-17T00:34:54;17.60;71.90
51815;DHT22;37874;53.158;6.766;2024-03-17T00:37:24;17.60;71.90
51815;DHT22;37874;53.158;6.766;2024-03-17T00:39:51;17.50;72.40
51815;DHT22;37874;53.158;6.766;2024-03-17T00:42:17;18.10;72.20
51815;DHT22;37874;53.158;6.766;2024-03-17T00:44:52;17.80;72.10
51815;DHT22;37874;53.158;6.766;2024-03-17T00:47:24;17.50;71.90
51815;DHT22;37874;53.158;6.766;2024-03-17T00:49:53;17.50;71.90
51815;DHT22;37874;53.158;6.766;2024-03-17T00:52:23;17.50;71.90
51815;DHT22;37874;53.158;6.766;2024-03-17T00:54:50;17.80;72.10
51815;DHT22;37874;53.158;6.766;2024-03-17T00:57:15;17.50;72.00
51815;DHT22;37874;53.158;6.766;2024-03-17T00:59:42;17.40;71.90
51815;DHT22;37874;53.158;6.766;2024-03-17T01:02:13;17.50;72.00
51815;DHT22;37874;53.158;6.766;2024-03-17T01:04:43;17.80;72.10
51815;DHT22;37874;53.158;6.766;2024-03-17T01:07:11;17.70;72.00
51815;DHT22;37874;53.158;6.766;2024-03-17T01:09:37;17.40;71.80
51815;DHT22;37874;53.158;6.766;2024-03-17T01:12:03;17.40;71.80
51815;DHT22;37874;53.158;6.766;2024-03-17T01:14:30;17.50;72.40
51815;DHT22;37874;53.158;6.766;2024-03-17T01:16:57;17.40;71.80
51815;DHT22;37874;53.158;6.766;2024-03-17T01:19:23;17.40;71.80
51815;DHT22;37874;53.158;6.766;2024-03-17T01:21:54;18.10;72.20
51815;DHT22;37874;53.158;6.766;2024-03-17T01:24:21;17.40;71.80
51815;DHT22;37874;53.158;6.766;2024-03-17T01:26:49;17.30;71.80
51815;DHT22;37874;53.158;6.766;2024-03-17T01:29:15;17.60;72.10
51815;DHT22;37874;53.158;6.766;2024-03-17T01:31:41;17.40;71.90
51815;DHT22;37874;53.158;6.766;2024-03-17T01:34:06;17.90;72.20
51815;DHT22;37874;53.158;6.766;2024-03-17T01:36:35;17.70;72.10
51815;DHT22;37874;53.158;6.766;2024-03-17T01:39:07;17.60;72.00
51815;DHT22;37874;53.158;6.766;2024-03-17T01:41:36;17.90;72.20
51815;DHT22;37874;53.158;6.766;2024-03-17T01:44:02;17.50;72.00
51815;DHT22;37874;53.158;6.766;2024-03-17T01:46:29;17.30;71.90
51815;DHT22;37874;53.158;6.766;2024-03-17T01:48:54;17.70;72.10
51815;DHT22;37874;53.158;6.766;2024-03-17T01:51:24;18.50;72.60
51815;DHT22;37874;53.158;6.766;2024-03-17T01:53:53;17.20;71.90
51815;DHT22;37874;53.158;6.766;2024-03-17T01:56:23;17.20;71.90
51815;DHT22;37874;53.158;6.766;2024-03-17T01:58:49;17.30;72.00
51815;DHT22;37874;53.158;6.766;2024-03-17T02:01:17;18.50;72.60
51815;DHT22;37874;53.158;6.766;2024-03-17T02:03:44;18.10;72.40
51815;DHT22;37874;53.158;6.766;2024-03-17T02:06:10;17.20;71.90
51815;DHT22;37874;53.158;6.766;2024-03-17T02:08:54;17.90;72.30
51815;DHT22;37874;53.158;6.766;2024-03-17T02:11:26;17.20;71.90
51815;DHT22;37874;53.158;6.766;2024-03-17T02:13:53;17.10;71.90
51815;DHT22;37874;53.158;6.766;2024-03-17T02:16:36;17.60;72.20
51815;DHT22;37874;53.158;6.766;2024-03-17T02:19:01;17.10;71.90
51815;DHT22;37874;53.158;6.766;2024-03-17T02:21:33;17.10;71.90
51815;DHT22;37874;53.158;6.766;2024-03-17T02:23:59;17.10;71.90
51815;DHT22;37874;53.158;6.766;2024-03-17T02:26:43;17.90;72.30
51815;DHT22;37874;53.158;6.766;2024-03-17T02:29:14;17.50;72.10
51815;DHT22;37874;53.158;6.766;2024-03-17T02:31:42;17.10;71.90
51815;DHT22;37874;53.158;6.766;2024-03-17T02:34:08;18.20;72.50
51815;DHT22;37874;53.158;6.766;2024-03-17T02:36:33;17.30;72.00
51815;DHT22;37874;53.158;6.766;2024-03-17T02:38:59;17.10;71.90
51815;DHT22;37874;53.158;6.766;2024-03-17T02:41:46;18.30;72.50
51815;DHT22;37874;53.158;6.766;2024-03-17T02:44:12;17.00;71.90
51815;DHT22;37874;53.158;6.766;2024-03-17T02:46:44;17.10;71.90
51815;DHT22;37874;53.158;6.766;2024-03-17T02:49:10;17.00;71.80
51815;DHT22;37874;53.158;6.766;2024-03-17T02:51:40;17.10;71.90
51815;DHT22;37874;53.158;6.766;2024-03-17T02:54:06;17.10;71.90
51815;DHT22;37874;53.158;6.766;2024-03-17T02:56:33;17.00;71.90
51815;DHT22;37874;53.158;6.766;2024-03-17T02:59:05;17.10;71.90
51815;DHT22;37874;53.158;6.766;2024-03-17T03:01:33;17.00;71.90
51815;DHT22;37874;53.158;6.766;2024-03-17T03:03:59;18.30;72.50
51815;DHT22;37874;53.158;6.766;2024-03-17T03:06:28;18.10;72.40
51815;DHT22;37874;53.158;6.766;2024-03-17T03:09:00;16.90;71.70
51815;DHT22;37874;53.158;6.766;2024-03-17T03:11:26;16.90;71.80
51815;DHT22;37874;53.158;6.766;2024-03-17T03:14:01;16.90;71.80
51815;DHT22;37874;53.158;6.766;2024-03-17T03:16:27;17.00;71.80
51815;DHT22;37874;53.158;6.766;2024-03-17T03:18:53;16.90;71.70
51815;DHT22;37874;53.158;6.766;2024-03-17T03:21:19;17.20;71.90
51815;DHT22;37874;53.158;6.766;2024-03-17T03:23:48;17.00;71.80
51815;DHT22;37874;53.158;6.766;2024-03-17T03:26:14;17.50;72.00
51815;DHT22;37874;53.158;6.766;2024-03-17T03:28:40;16.90;71.70
51815;DHT22;37874;53.158;6.766;2024-03-17T03:31:12;17.80;72.20
51815;DHT22;37874;53.158;6.766;2024-03-17T03:33:43;17.00;71.80
51815;DHT22;37874;53.158;6.766;2024-03-17T03:36:19;16.90;71.70
51815;DHT22;37874;53.158;6.766;2024-03-17T03:38:55;16.90;71.70
51815;DHT22;37874;53.158;6.766;2024-03-17T03:41:23;17.00;71.70
51815;DHT22;37874;53.158;6.766;2024-03-17T03:43:52;16.90;71.60
51815;DHT22;37874;53.158;6.766;2024-03-17T03:46:18;17.50;72.00
51815;DHT22;37874;53.158;6.766;2024-03-17T03:48:44;16.90;71.60
51815;DHT22;37874;53.158;6.766;2024-03-17T03:51:11;17.00;71.70
51815;DHT22;37874;53.158;6.766;2024-03-17T03:53:44;18.10;72.20
51815;DHT22;37874;53.158;6.766;2024-03-17T03:56:11;17.00;71.50
51815;DHT22;37874;53.158;6.766;2024-03-17T03:58:38;17.90;72.00
51815;DHT22;37874;53.158;6.766;2024-03-17T04:01:07;17.10;71.50
51815;DHT22;37874;53.158;6.766;2024-03-17T04:03:34;16.90;71.40
51815;DHT22;37874;53.158;6.766;2024-03-17T04:06:10;17.00;71.50
51815;DHT22;37874;53.158;6.766;2024-03-17T04:08:37;17.00;71.50
51815;DHT22;37874;53.158;6.766;2024-03-17T04:11:07;17.00;71.40
51815;DHT22;37874;53.158;6.766;2024-03-17T04:13:33;17.00;71.40
51815;DHT22;37874;53.158;6.766;2024-03-17T04:16:04;17.90;71.90
51815;DHT22;37874;53.158;6.766;2024-03-17T04:18:37;16.90;71.40
51815;DHT22;37874;53.158;6.766;2024-03-17T04:21:06;17.00;71.40
51815;DHT22;37874;53.158;6.766;2024-03-17T04:23:38;17.70;71.80
51815;DHT22;37874;53.158;6.766;2024-03-17T04:26:04;17.20;71.50
51815;DHT22;37874;53.158;6.766;2024-03-17T04:28:33;17.00;71.40
51815;DHT22;37874;53.158;6.766;2024-03-17T04:31:06;17.10;71.40
51815;DHT22;37874;53.158;6.766;2024-03-17T04:33:32;17.30;71.60
51815;DHT22;37874;53.158;6.766;2024-03-17T04:35:58;17.30;71.60
51815;DHT22;37874;53.158;6.766;2024-03-17T04:38:24;17.30;71.50
51815;DHT22;37874;53.158;6.766;2024-03-17T04:40:59;17.30;71.60
51815;DHT22;37874;53.158;6.766;2024-03-17T04:43:39;17.20;71.50
51815;DHT22;37874;53.158;6.766;2024-03-17T04:46:06;17.30;71.60
51815;DHT22;37874;53.158;6.766;2024-03-17T04:48:34;17.80;71.80
51815;DHT22;37874;53.158;6.766;2024-03-17T04:51:00;18.20;72.00
51815;DHT22;37874;53.158;6.766;2024-03-17T04:53:31;17.20;71.40
51815;DHT22;37874;53.158;6.766;2024-03-17T04:56:05;17.00;71.30
51815;DHT22;37874;53.158;6.766;2024-03-17T04:58:35;17.00;71.30
51815;DHT22;37874;53.158;6.766;2024-03-17T05:01:08;17.00;71.30
51815;DHT22;37874;53.158;6.766;2024-03-17T05:03:39;18.10;71.80
51815;DHT22;37874;53.158;6.766;2024-03-17T05:06:11;17.00;71.20
51815;DHT22;37874;53.158;6.766;2024-03-17T05:08:40;18.00;71.80
51815;DHT22;37874;53.158;6.766;2024-03-17T05:11:07;17.00;71.20
51815;DHT22;37874;53.158;6.766;2024-03-17T05:13:37;18.10;71.80
51815;DHT22;37874;53.158;6.766;2024-03-17T05:16:04;17.00;71.20
51815;DHT22;37874;53.158;6.766;2024-03-17T05:18:38;17.00;71.20
51815;DHT22;37874;53.158;6.766;2024-03-17T05:21:12;17.00;71.20
51815;DHT22;37874;53.158;6.766;2024-03-17T05:23:48;17.00;71.30
51815;DHT22;37874;53.158;6.766;2024-03-17T05:26:14;17.40;71.40
51815;DHT22;37874;53.158;6.766;2024-03-17T05:28:42;17.50;71.50
51815;DHT22;37874;53.158;6.766;2024-03-17T05:31:08;17.00;71.20
51815;DHT22;37874;53.158;6.766;2024-03-17T05:33:34;17.50;71.50
51815;DHT22;37874;53.158;6.766;2024-03-17T05:36:03;16.90;71.20
51815;DHT22;37874;53.158;6.766;2024-03-17T05:38:38;17.00;71.30
51815;DHT22;37874;53.158;6.766;2024-03-17T05:41:06;17.20;71.30
51815;DHT22;37874;53.158;6.766;2024-03-17T05:43:37;17.20;71.30
51815;DHT22;37874;53.158;6.766;2024-03-17T05:46:10;17.70;71.60
51815;DHT22;37874;53.158;6.766;2024-03-17T05:48:40;17.30;71.40
51815;DHT22;37874;53.158;6.766;2024-03-17T05:51:11;17.00;71.20
51815;DHT22;37874;53.158;6.766;2024-03-17T05:53:37;17.50;71.50
51815;DHT22;37874;53.158;6.766;2024-03-17T05:56:15;17.40;71.40
51815;DHT22;37874;53.158;6.766;2024-03-17T05:58:42;16.90;71.10
51815;DHT22;37874;53.158;6.766;2024-03-17T06:01:09;17.00;71.20
51815;DHT22;37874;53.158;6.766;2024-03-17T06:03:37;16.90;71.10
51815;DHT22;37874;53.158;6.766;2024-03-17T06:06:05;17.30;71.40
51815;DHT22;37874;53.158;6.766;2024-03-17T06:08:33;16.90;71.20
51815;DHT22;37874;53.158;6.766;2024-03-17T06:11:04;18.10;71.80
51815;DHT22;37874;53.158;6.766;2024-03-17T06:13:31;17.00;71.20
51815;DHT22;37874;53.158;6.766;2024-03-17T06:15:57;16.90;71.10
51815;DHT22;37874;53.158;6.766;2024-03-17T06:18:35;17.00;71.20
51815;DHT22;37874;53.158;6.766;2024-03-17T06:21:00;17.00;71.10
51815;DHT22;37874;53.158;6.766;2024-03-17T06:23:31;16.90;71.10
51815;DHT22;37874;53.158;6.766;2024-03-17T06:25:57;16.90;71.10
51815;DHT22;37874;53.158;6.766;2024-03-17T06:28:26;17.00;71.10
51815;DHT22;37874;53.158;6.766;2024-03-17T06:30:59;16.90;71.10
51815;DHT22;37874;53.158;6.766;2024-03-17T06:33:32;16.60;70.80
51815;DHT22;37874;53.158;6.766;2024-03-17T06:36:02;17.00;71.10
51815;DHT22;37874;53.158;6.766;2024-03-17T06:38:42;17.00;71.00
51815;DHT22;37874;53.158;6.766;2024-03-17T06:41:09;17.10;71.00
51815;DHT22;37874;53.158;6.766;2024-03-17T06:43:35;17.00;70.90
51815;DHT22;37874;53.158;6.766;2024-03-17T06:46:02;18.20;71.50
51815;DHT22;37874;53.158;6.766;2024-03-17T06:48:29;17.00;70.90
51815;DHT22;37874;53.158;6.766;2024-03-17T06:51:05;17.00;70.80
51815;DHT22;37874;53.158;6.766;2024-03-17T06:53:34;17.10;70.80
51815;DHT22;37874;53.158;6.766;2024-03-17T06:56:02;17.70;71.10
51815;DHT22;37874;53.158;6.766;2024-03-17T06:58:34;17.00;70.70
51815;DHT22;37874;53.158;6.766;2024-03-17T07:01:03;17.70;71.10
51815;DHT22;37874;53.158;6.766;2024-03-17T07:03:31;17.10;70.70
51815;DHT22;37874;53.158;6.766;2024-03-17T07:06:03;17.10;70.70
51815;DHT22;37874;53.158;6.766;2024-03-17T07:08:33;17.10;70.60
51815;DHT22;37874;53.158;6.766;2024-03-17T07:11:11;17.10;70.60
51815;DHT22;37874;53.158;6.766;2024-03-17T07:13:38;17.10;70.60
51815;DHT22;37874;53.158;6.766;2024-03-17T07:16:11;18.10;71.20
51815;DHT22;37874;53.158;6.766;2024-03-17T07:18:43;17.20;70.80
51815;DHT22;37874;53.158;6.766;2024-03-17T07:21:09;17.10;70.80
51815;DHT22;37874;53.158;6.766;2024-03-17T07:23:41;17.20;70.90
51815;DHT22;37874;53.158;6.766;2024-03-17T07:26:34;17.20;70.90
51815;DHT22;37874;53.158;6.766;2024-03-17T07:29:01;17.20;70.90
51815;DHT22;37874;53.158;6.766;2024-03-17T07:31:33;17.20;70.80
51815;DHT22;37874;53.158;6.766;2024-03-17T07:33:58;17.20;70.70
51815;DHT22;37874;53.158;6.766;2024-03-17T07:36:26;18.00;71.10
51815;DHT22;37874;53.158;6.766;2024-03-17T07:38:59;17.20;70.60
51815;DHT22;37874;53.158;6.766;2024-03-17T07:41:31;17.20;70.60
51815;DHT22;37874;53.158;6.766;2024-03-17T07:44:02;17.30;70.50
51815;DHT22;37874;53.158;6.766;2024-03-17T07:46:33;17.70;70.70
51815;DHT22;37874;53.158;6.766;2024-03-17T07:49:06;17.30;70.40
51815;DHT22;37874;53.158;6.766;2024-03-17T07:51:32;17.40;70.40
51815;DHT22;37874;53.158;6.766;2024-03-17T07:54:04;17.40;70.40
51815;DHT22;37874;53.158;6.766;2024-03-17T07:56:33;17.50;70.30
51815;DHT22;37874;53.158;6.766;2024-03-17T07:59:14;18.00;70.50
51815;DHT22;37874;53.158;6.766;2024-03-17T08:01:55;17.40;70.10
51815;DHT22;37874;53.158;6.766;2024-03-17T08:04:29;17.40;70.10
51815;DHT22;37874;53.158;6.766;2024-03-17T08:06:59;17.40;70.00
51815;DHT22;37874;53.158;6.766;2024-03-17T08:09:32;17.40;70.00
51815;DHT22;37874;53.158;6.766;2024-03-17T08:11:59;17.40;69.90
51815;DHT22;37874;53.158;6.766;2024-03-17T08:14:26;17.90;70.20
51815;DHT22;37874;53.158;6.766;2024-03-17T08:16:57;17.30;69.80
51815;DHT22;37874;53.158;6.766;2024-03-17T08:19:22;17.50;69.90
51815;DHT22;37874;53.158;6.766;2024-03-17T08:21:53;18.10;70.20
51815;DHT22;37874;53.158;6.766;2024-03-17T08:24:20;17.50;69.80
51815;DHT22;37874;53.158;6.766;2024-03-17T08:26:47;17.80;70.00
51815;DHT22;37874;53.158;6.766;2024-03-17T08:29:19;17.50;69.70
51815;DHT22;37874;53.158;6.766;2024-03-17T08:31:47;17.50;69.70
51815;DHT22;37874;53.158;6.766;2024-03-17T08:34:23;17.90;70.00
51815;DHT22;37874;53.158;6.766;2024-03-17T08:36:51;17.50;69.70
51815;DHT22;37874;53.158;6.766;2024-03-17T08:39:17;17.60;69.80
51815;DHT22;37874;53.158;6.766;2024-03-17T08:41:43;17.60;69.70
51815;DHT22;37874;53.158;6.766;2024-03-17T08:44:11;17.80;69.90
51815;DHT22;37874;53.158;6.766;2024-03-17T08:46:40;18.20;70.10
51815;DHT22;37874;53.158;6.766;2024-03-17T08:49:08;17.60;69.70
51815;DHT22;37874;53.158;6.766;2024-03-17T08:51:36;17.60;69.60
51815;DHT22;37874;53.158;6.766;2024-03-17T08:54:04;18.50;70.10
51815;DHT22;37874;53.158;6.766;2024-03-17T08:56:30;17.70;69.60
51815;DHT22;37874;53.158;6.766;2024-03-17T08:59:00;17.70;69.70
51815;DHT22;37874;53.158;6.766;2024-03-17T09:01:31;17.70;69.60
51815;DHT22;37874;53.158;6.766;2024-03-17T09:03:57;17.70;69.60
51815;DHT22;37874;53.158;6.766;2024-03-17T09:06:27;17.70;70.10
51815;DHT22;37874;53.158;6.766;2024-03-17T09:08:58;17.70;69.50
51815;DHT22;37874;53.158;6.766;2024-03-17T09:11:25;17.70;69.50
51815;DHT22;37874;53.158;6.766;2024-03-17T09:14:00;18.50;69.90
51815;DHT22;37874;53.158;6.766;2024-03-17T09:16:26;17.70;69.40
51815;DHT22;37874;53.158;6.766;2024-03-17T09:19:00;17.80;69.40
51815;DHT22;37874;53.158;6.766;2024-03-17T09:21:31;17.80;69.40
51815;DHT22;37874;53.158;6.766;2024-03-17T09:23:57;17.80;69.40
51815;DHT22;37874;53.158;6.766;2024-03-17T09:26:31;17.80;69.30
51815;DHT22;37874;53.158;6.766;2024-03-17T09:29:00;17.80;69.30
51815;DHT22;37874;53.158;6.766;2024-03-17T09:31:26;17.90;69.30
51815;DHT22;37874;53.158;6.766;2024-03-17T09:33:56;17.80;69.20
51815;DHT22;37874;53.158;6.766;2024-03-17T09:36:22;17.90;69.30
51815;DHT22;37874;53.158;6.766;2024-03-17T09:38:50;17.90;69.30
51815;DHT22;37874;53.158;6.766;2024-03-17T09:41:21;17.90;69.30
51815;DHT22;37874;53.158;6.766;2024-03-17T09:43:57;18.20;69.30
51815;DHT22;37874;53.158;6.766;2024-03-17T09:46:27;18.00;69.20
51815;DHT22;37874;53.158;6.766;2024-03-17T09:48:55;18.00;69.20
51815;DHT22;37874;53.158;6.766;2024-03-17T09:51:24;18.10;69.20
51815;DHT22;37874;53.158;6.766;2024-03-17T09:54:00;18.00;69.00
51815;DHT22;37874;53.158;6.766;2024-03-17T09:56:29;18.00;68.90
51815;DHT22;37874;53.158;6.766;2024-03-17T09:59:03;18.10;68.80
51815;DHT22;37874;53.158;6.766;2024-03-17T10:01:28;18.10;68.60
51815;DHT22;37874;53.158;6.766;2024-03-17T10:03:55;18.10;68.60
51815;DHT22;37874;53.158;6.766;2024-03-17T10:06:26;18.10;68.60
51815;DHT22;37874;53.158;6.766;2024-03-17T10:09:00;19.00;69.00
51815;DHT22;37874;53.158;6.766;2024-03-17T10:11:44;18.10;68.60
51815;DHT22;37874;53.158;6.766;2024-03-17T10:14:18;18.10;68.50
51815;DHT22;37874;53.158;6.766;2024-03-17T10:16:44;18.10;68.50
51815;DHT22;37874;53.158;6.766;2024-03-17T10:21:58;18.20;68.50
51815;DHT22;37874;53.158;6.766;2024-03-17T10:24:26;18.20;68.50
51815;DHT22;37874;53.158;6.766;2024-03-17T10:26:58;18.80;68.70
51815;DHT22;37874;53.158;6.766;2024-03-17T10:29:32;18.20;68.40
51815;DHT22;37874;53.158;6.766;2024-03-17T10:32:23;18.50;68.60
51815;DHT22;37874;53.158;6.766;2024-03-17T10:34:55;18.20;68.30
51815;DHT22;37874;53.158;6.766;2024-03-17T10:37:23;18.30;68.30
51815;DHT22;37874;53.158;6.766;2024-03-17T10:39:53;18.30;68.40
51815;DHT22;37874;53.158;6.766;2024-03-17T10:42:30;18.30;68.50
51815;DHT22;37874;53.158;6.766;2024-03-17T10:44:59;19.10;68.80
51815;DHT22;37874;53.158;6.766;2024-03-17T10:47:27;18.30;68.30
51815;DHT22;37874;53.158;6.766;2024-03-17T10:50:12;19.30;68.80
51815;DHT22;37874;53.158;6.766;2024-03-17T10:52:46;18.40;68.30
51815;DHT22;37874;53.158;6.766;2024-03-17T10:55:20;18.40;68.30
51815;DHT22;37874;53.158;6.766;2024-03-17T10:57:55;19.00;68.50
51815;DHT22;37874;53.158;6.766;2024-03-17T11:00:24;18.40;68.20
51815;DHT22;37874;53.158;6.766;2024-03-17T11:03:06;18.40;68.20
51815;DHT22;37874;53.158;6.766;2024-03-17T11:05:38;18.50;68.10
51815;DHT22;37874;53.158;6.766;2024-03-17T11:08:17;18.50;68.10
51815;DHT22;37874;53.158;6.766;2024-03-17T11:10:54;18.40;68.10
51815;DHT22;37874;53.158;6.766;2024-03-17T11:13:27;18.50;68.20
51815;DHT22;37874;53.158;6.766;2024-03-17T11:15:54;18.60;68.30
51815;DHT22;37874;53.158;6.766;2024-03-17T11:21:00;18.50;68.20
51815;DHT22;37874;53.158;6.766;2024-03-17T11:23:41;18.50;68.20
51815;DHT22;37874;53.158;6.766;2024-03-17T11:26:09;18.80;68.40
51815;DHT22;37874;53.158;6.766;2024-03-17T11:28:45;18.50;68.20
51815;DHT22;37874;53.158;6.766;2024-03-17T11:34:37;18.50;68.20
51815;DHT22;37874;53.158;6.766;2024-03-17T11:37:06;18.60;68.20
51815;DHT22;37874;53.158;6.766;2024-03-17T11:39:56;18.50;68.10
51815;DHT22;37874;53.158;6.766;2024-03-17T11:42:23;18.50;68.10
51815;DHT22;37874;53.158;6.766;2024-03-17T11:45:02;18.70;68.10
51815;DHT22;37874;53.158;6.766;2024-03-17T11:47:35;18.60;68.00
51815;DHT22;37874;53.158;6.766;2024-03-17T11:50:03;18.60;67.90
51815;DHT22;37874;53.158;6.766;2024-03-17T11:52:34;18.60;67.80
51815;DHT22;37874;53.158;6.766;2024-03-17T11:55:02;18.70;67.90
51815;DHT22;37874;53.158;6.766;2024-03-17T11:57:27;18.70;67.80
51815;DHT22;37874;53.158;6.766;2024-03-17T11:59:54;19.00;67.90
51815;DHT22;37874;53.158;6.766;2024-03-17T12:02:22;18.70;67.60
51815;DHT22;37874;53.158;6.766;2024-03-17T12:04:57;19.60;68.00
51815;DHT22;37874;53.158;6.766;2024-03-17T12:07:24;18.80;68.10
51815;DHT22;37874;53.158;6.766;2024-03-17T12:09:51;18.80;67.50
51815;DHT22;37874;53.158;6.766;2024-03-17T12:12:18;19.30;67.80
51815;DHT22;37874;53.158;6.766;2024-03-17T12:14:47;19.10;67.60
51815;DHT22;37874;53.158;6.766;2024-03-17T12:17:25;19.70;67.90
51815;DHT22;37874;53.158;6.766;2024-03-17T12:19:51;18.80;67.40
51815;DHT22;37874;53.158;6.766;2024-03-17T12:22:19;18.80;67.50
51815;DHT22;37874;53.158;6.766;2024-03-17T12:24:54;18.90;67.40
51815;DHT22;37874;53.158;6.766;2024-03-17T12:27:23;19.30;67.70
51815;DHT22;37874;53.158;6.766;2024-03-17T12:29:51;19.30;67.70
51815;DHT22;37874;53.158;6.766;2024-03-17T12:32:21;19.30;67.80
51815;DHT22;37874;53.158;6.766;2024-03-17T12:34:57;18.70;67.50
51815;DHT22;37874;53.158;6.766;2024-03-17T12:37:24;18.80;67.60
51815;DHT22;37874;53.158;6.766;2024-03-17T12:40:00;18.70;67.50
51815;DHT22;37874;53.158;6.766;2024-03-17T12:42:39;18.80;67.60
51815;DHT22;37874;53.158;6.766;2024-03-17T12:45:09;18.90;67.60
51815;DHT22;37874;53.158;6.766;2024-03-17T12:47:36;18.90;67.50
51815;DHT22;37874;53.158;6.766;2024-03-17T12:50:11;19.20;67.60
51815;DHT22;37874;53.158;6.766;2024-03-17T12:52:51;18.90;67.40
51815;DHT22;37874;53.158;6.766;2024-03-17T12:55:21;18.90;67.20
51815;DHT22;37874;53.158;6.766;2024-03-17T12:58:09;18.90;67.20
51815;DHT22;37874;53.158;6.766;2024-03-17T13:01:03;19.00;67.20
51815;DHT22;37874;53.158;6.766;2024-03-17T13:03:36;19.00;67.10
51815;DHT22;37874;53.158;6.766;2024-03-17T13:06:03;19.10;67.30
51815;DHT22;37874;53.158;6.766;2024-03-17T13:08:33;19.00;67.10
51815;DHT22;37874;53.158;6.766;2024-03-17T13:11:08;19.00;67.20
51815;DHT22;37874;53.158;6.766;2024-03-17T13:13:36;19.00;67.10
51815;DHT22;37874;53.158;6.766;2024-03-17T13:16:05;19.00;67.10
51815;DHT22;37874;53.158;6.766;2024-03-17T13:18:49;19.00;67.20
51815;DHT22;37874;53.158;6.766;2024-03-17T13:21:15;19.00;67.30
51815;DHT22;37874;53.158;6.766;2024-03-17T13:23:52;20.10;67.90
51815;DHT22;37874;53.158;6.766;2024-03-17T13:26:19;19.00;67.30
51815;DHT22;37874;53.158;6.766;2024-03-17T13:28:50;19.00;67.30
51815;DHT22;37874;53.158;6.766;2024-03-17T13:31:19;19.30;67.50
51815;DHT22;37874;53.158;6.766;2024-03-17T13:33:56;19.00;67.30
51815;DHT22;37874;53.158;6.766;2024-03-17T13:36:21;19.00;67.40
51815;DHT22;37874;53.158;6.766;2024-03-17T13:38:52;19.30;68.00
51815;DHT22;37874;53.158;6.766;2024-03-17T13:41:35;19.00;68.00
51815;DHT22;37874;53.158;6.766;2024-03-17T13:44:02;19.10;68.50
51815;DHT22;37874;53.158;6.766;2024-03-17T13:46:43;19.00;68.60
51815;DHT22;37874;53.158;6.766;2024-03-17T13:49:11;19.10;68.80
51815;DHT22;37874;53.158;6.766;2024-03-17T13:51:37;19.00;68.90
51815;DHT22;37874;53.158;6.766;2024-03-17T13:54:05;19.00;69.00
51815;DHT22;37874;53.158;6.766;2024-03-17T13:56:32;19.10;69.20
51815;DHT22;37874;53.158;6.766;2024-03-17T13:58:58;19.10;69.40
51815;DHT22;37874;53.158;6.766;2024-03-17T14:01:24;19.00;69.40
51815;DHT22;37874;53.158;6.766;2024-03-17T14:03:57;19.00;69.30
51815;DHT22;37874;53.158;6.766;2024-03-17T14:06:24;19.00;69.30
51815;DHT22;37874;53.158;6.766;2024-03-17T14:08:50;18.90;69.10
51815;DHT22;37874;53.158;6.766;2024-03-17T14:11:21;18.90;69.00
51815;DHT22;37874;53.158;6.766;2024-03-17T14:13:48;20.00;69.50
51815;DHT22;37874;53.158;6.766;2024-03-17T14:16:15;19.00;68.90
51815;DHT22;37874;53.158;6.766;2024-03-17T14:18:40;18.90;68.80
51815;DHT22;37874;53.158;6.766;2024-03-17T14:21:08;18.90;68.80
51815;DHT22;37874;53.158;6.766;2024-03-17T14:23:34;18.90;68.80
51815;DHT22;37874;53.158;6.766;2024-03-17T14:26:01;18.80;68.80
51815;DHT22;37874;53.158;6.766;2024-03-17T14:28:28;18.80;68.80
51815;DHT22;37874;53.158;6.766;2024-03-17T14:30:58;18.80;68.80
51815;DHT22;37874;53.158;6.766;2024-03-17T14:33:40;18.80;68.80
51815;DHT22;37874;53.158;6.766;2024-03-17T14:36:07;18.80;68.90
51815;DHT22;37874;53.158;6.766;2024-03-17T14:38:33;18.70;68.90
51815;DHT22;37874;53.158;6.766;2024-03-17T14:41:00;18.70;68.90
51815;DHT22;37874;53.158;6.766;2024-03-17T14:43:27;19.20;69.20
51815;DHT22;37874;53.158;6.766;2024-03-17T14:46:00;18.70;69.00
51815;DHT22;37874;53.158;6.766;2024-03-17T14:48:28;18.70;69.10
51815;DHT22;37874;53.158;6.766;2024-03-17T14:50:57;18.70;69.10
51815;DHT22;37874;53.158;6.766;2024-03-17T14:53:23;18.70;69.10
51815;DHT22;37874;53.158;6.766;2024-03-17T14:55:52;18.60;69.10
51815;DHT22;37874;53.158;6.766;2024-03-17T14:58:25;18.60;69.10
51815;DHT22;37874;53.158;6.766;2024-03-17T15:00:54;18.60;69.20
51815;DHT22;37874;53.158;6.766;2024-03-17T15:03:33;18.60;69.20
51815;DHT22;37874;53.158;6.766;2024-03-17T15:06:03;18.60;69.30
51815;DHT22;37874;53.158;6.766;2024-03-17T15:08:39;18.60;69.40
51815;DHT22;37874;53.158;6.766;2024-03-17T15:11:05;18.60;69.40
51815;DHT22;37874;53.158;6.766;2024-03-17T15:13:36;18.50;69.40
51815;DHT22;37874;53.158;6.766;2024-03-17T15:16:11;18.50;69.50
51815;DHT22;37874;53.158;6.766;2024-03-17T15:18:52;18.50;69.50
51815;DHT22;37874;53.158;6.766;2024-03-17T15:21:18;18.90;70.00
51815;DHT22;37874;53.158;6.766;2024-03-17T15:23:50;18.50;70.10
51815;DHT22;37874;53.158;6.766;2024-03-17T15:26:15;18.50;70.20
51815;DHT22;37874;53.158;6.766;2024-03-17T15:28:46;19.20;70.70
51815;DHT22;37874;53.158;6.766;2024-03-17T15:31:11;18.50;70.50
51815;DHT22;37874;53.158;6.766;2024-03-17T15:33:39;18.50;70.50
51815;DHT22;37874;53.158;6.766;2024-03-17T15:36:08;18.50;70.50
51815;DHT22;37874;53.158;6.766;2024-03-17T15:38:35;18.50;70.60
51815;DHT22;37874;53.158;6.766;2024-03-17T15:41:10;18.40;70.60
51815;DHT22;37874;53.158;6.766;2024-03-17T15:43:40;18.40;70.60
51815;DHT22;37874;53.158;6.766;2024-03-17T15:46:17;18.40;70.70
51815;DHT22;37874;53.158;6.766;2024-03-17T15:49:03;18.40;70.70
51815;DHT22;37874;53.158;6.766;2024-03-17T15:51:29;18.40;70.70
51815;DHT22;37874;53.158;6.766;2024-03-17T15:53:55;18.40;70.80
51815;DHT22;37874;53.158;6.766;2024-03-17T15:56:26;18.60;70.90
51815;DHT22;37874;53.158;6.766;2024-03-17T15:58:52;18.40;70.90